메인 페이지
METAR-TAF:

METAR-TAF

공항 :

이타카, 뉴욕, 미국

위도: 42-29N, 경도: 076-27W, 고도: 335m

현재 날씨관측

예보는 46분 전, 22:56시(UTC)에 발표되었습니다.
3kt
온도 6°C
습도 93%
기압 1013 hPa
시정: 16.1km
고도 2200ft 상공 흐림

METAR: KITH 312256Z 28003KT 10SM OVC022 06/05 A2992 RMK AO2 SLP138 T00610050

시각: 19:42 (23:42 UTC)

예보

예보는 9분 전, 23:33시(UTC)에 발표되었습니다.
예보 대상 시간: 01일 00시부터 01일 24시까지 (UTC)
4kt
시정: 10km
고도 3000ft 상공 흐림
01일 1700시부터 (UTC)
북서7kt
시정: 10km
고도 3500ft 상공 흐림
01일 2100시부터 (UTC)
여러 방향의 바람 4kt
시정: 10km
고도 4000ft 상공 구름 보통

TAF: KITH 312333Z 0100/0124 28004KT P6SM OVC030 FM011700 32007KT P6SM OVC035 FM012100 VRB04KT P6SM SCT040

4,000개 이상의 공항 관측 자료 및 예보 (METAR 및 TAF 보고).

지도상에서 검색 가능한 기상관측소가 노란 점과 빨간 점으로 표시되어 있습니다.

기상관측소 명을 보려면 표시 위로 마우스를 이동하세요.

날씨 관측과 예보를 보려면 클릭하세요.

지도 변경 : 확대하려면 엑스 표시가 있는 녹색 버튼, 축소하려면 빼기 표시가 있는 녹색 버튼, 다음 페이지의 지도를 보려면 녹색 화살표를 클릭하세요.


METAR-TAF: